^^
Station Historical Data
Daily Summary for February 13, 2018 Units:  English    Metric   Both
« Previous Day
Next Day »
Daily Weekly Monthly Yearly Custom
  High: Low: Average:
Temperature: TemperatureF °F 45.9 °F 48.6 °F
Dew Point: DewpointF °F 43.5 °F 46 °F
Humidity: Humidity% 84% 90%
Wind Speed: WindSpeedMPHmph 0.0mph 0mph
Wind Gust: WindSpeedGustMPHmph - -
Wind- - North
Pressure: PressureIn in 30.47 in -
Precipitation: 0.01 in    
Historical Graphs
 
 
Tabular Data for February 13, 2018
Time Temperature Dew Point Pressure Wind Wind Speed Wind Gust Humidity Rainfall Rate (Hourly)
TemperatureF °F DewpointF °F PressureIn in Calm     Humidity% HourlyPrecipIn in
00:00 45.9 °F 44.8 °F 30.47 in Calm     96% 0.07 in
00:05 46.0 °F 45.0 °F 30.47 in Calm     96% 0.06 in
00:11 46.0 °F 45.0 °F 30.47 in Calm     96% 0.04 in
00:16 46.0 °F 45.0 °F 30.47 in Calm     96% 0.02 in
00:22 46.2 °F 45.1 °F 30.47 in Calm     96% 0.01 in
00:27 46.2 °F 45.1 °F 30.47 in Calm     96% 0.00 in
00:32 46.2 °F 45.1 °F 30.47 in Calm     96% 0.00 in
00:38 46.4 °F 45.3 °F 30.47 in Calm     96% 0.00 in
00:43 46.4 °F 45.7 °F 30.47 in Calm     97% 0.00 in
00:48 46.6 °F 45.9 °F 30.47 in Calm     97% 0.00 in
00:53 46.8 °F 46.0 °F 30.48 in Calm     97% 0.00 in
00:59 46.8 °F 46.0 °F 30.47 in Calm     97% 0.00 in
01:04 46.8 °F 46.0 °F 30.47 in Calm     97% 0.00 in
01:09 46.8 °F 46.0 °F 30.47 in Calm     97% 0.00 in
01:15 46.9 °F 46.2 °F 30.47 in Calm     97% 0.00 in
01:20 46.9 °F 46.2 °F 30.47 in Calm     97% 0.00 in
01:25 46.9 °F 46.2 °F 30.48 in Calm     97% 0.00 in
01:30 46.9 °F 46.2 °F 30.48 in Calm     97% 0.00 in
01:35 46.9 °F 46.2 °F 30.47 in Calm     97% 0.00 in
01:40 46.9 °F 46.2 °F 30.47 in Calm     97% 0.00 in
01:45 46.9 °F 46.2 °F 30.47 in Calm     97% 0.00 in
01:51 46.9 °F 46.2 °F 30.47 in Calm     97% 0.00 in
01:57 46.9 °F 46.2 °F 30.47 in Calm     97% 0.00 in
02:02 46.9 °F 46.2 °F 30.48 in Calm     97% 0.00 in
02:08 46.9 °F 46.2 °F 30.48 in Calm     97% 0.00 in
02:13 47.1 °F 46.4 °F 30.48 in Calm     97% 0.00 in
02:18 47.1 °F 46.4 °F 30.48 in Calm     97% 0.00 in
02:24 47.1 °F 46.4 °F 30.48 in Calm     97% 0.00 in
02:29 47.1 °F 46.4 °F 30.48 in Calm     97% 0.00 in
02:34 47.1 °F 46.4 °F 30.48 in Calm     97% 0.00 in
02:40 47.1 °F 46.4 °F 30.49 in Calm     97% 0.00 in
02:45 47.3 °F 46.6 °F 30.49 in Calm     97% 0.00 in
02:51 47.3 °F 46.6 °F 30.49 in Calm     97% 0.00 in
02:56 47.3 °F 46.6 °F 30.49 in Calm     97% 0.00 in
03:02 47.3 °F 46.6 °F 30.49 in Calm     97% 0.00 in
03:08 47.3 °F 46.6 °F 30.49 in Calm     97% 0.00 in
03:13 47.3 °F 46.6 °F 30.49 in Calm     97% 0.00 in
03:18 47.1 °F 46.4 °F 30.49 in Calm     97% 0.00 in
03:24 47.1 °F 46.4 °F 30.49 in Calm     97% 0.00 in
03:29 47.1 °F 46.4 °F 30.49 in Calm     97% 0.00 in
03:34 47.1 °F 46.4 °F 30.49 in Calm     97% 0.00 in
03:40 46.9 °F 46.2 °F 30.49 in Calm     97% 0.00 in
03:45 47.1 °F 46.4 °F 30.49 in Calm     97% 0.00 in
03:51 47.1 °F 46.4 °F 30.48 in Calm     97% 0.00 in
03:56 47.5 °F 46.8 °F 30.48 in Calm     97% 0.00 in
04:01 48.7 °F 47.8 °F 30.48 in Calm     97% 0.00 in
04:06 49.8 °F 48.9 °F 30.48 in Calm     97% 0.00 in
04:11 50.5 °F 49.6 °F 30.48 in Calm     97% 0.00 in
04:16 51.3 °F 50.4 °F 30.48 in Calm     97% 0.00 in
04:21 51.8 °F 50.9 °F 30.48 in Calm     97% 0.00 in
04:27 52.2 °F 51.6 °F 30.49 in Calm     98% 0.00 in
04:32 52.3 °F 51.4 °F 30.50 in Calm     97% 0.00 in
04:37 52.2 °F 51.3 °F 30.50 in Calm     97% 0.00 in
04:42 52.0 °F 51.1 °F 30.50 in Calm     97% 0.00 in
04:48 51.6 °F 50.7 °F 30.50 in Calm     97% 0.00 in
04:53 51.4 °F 50.4 °F 30.50 in Calm     96% 0.00 in
04:59 51.1 °F 50.0 °F 30.50 in Calm     96% 0.00 in
05:04 50.9 °F 49.8 °F 30.50 in Calm     96% 0.00 in
05:09 50.7 °F 49.3 °F 30.50 in Calm     95% 0.00 in
05:15 50.5 °F 49.1 °F 30.50 in Calm     95% 0.00 in
05:20 50.5 °F 49.1 °F 30.50 in Calm     95% 0.00 in
05:26 50.4 °F 48.9 °F 30.51 in Calm     95% 0.00 in
05:31 50.2 °F 48.7 °F 30.51 in Calm     95% 0.00 in
05:36 50.2 °F 48.7 °F 30.51 in Calm     95% 0.00 in
05:41 50.4 °F 48.9 °F 30.51 in Calm     95% 0.00 in
05:47 50.2 °F 48.7 °F 30.51 in Calm     95% 0.00 in
05:52 50.2 °F 48.6 °F 30.51 in Calm     94% 0.00 in
05:57 50.0 °F 48.0 °F 30.51 in Calm     93% 0.00 in
06:02 49.8 °F 47.8 °F 30.51 in Calm     93% 0.00 in
06:08 49.6 °F 47.7 °F 30.52 in Calm     93% 0.00 in
06:13 49.6 °F 47.7 °F 30.52 in Calm     93% 0.00 in
06:18 49.6 °F 47.7 °F 30.52 in Calm     93% 0.00 in
06:24 49.5 °F 47.5 °F 30.53 in Calm     93% 0.00 in
06:29 49.5 °F 47.3 °F 30.53 in Calm     92% 0.00 in
06:34 49.5 °F 47.3 °F 30.53 in Calm     92% 0.00 in
06:39 49.3 °F 47.1 °F 30.54 in Calm     92% 0.00 in
06:44 49.1 °F 46.9 °F 30.54 in Calm     92% 0.00 in
06:50 48.9 °F 46.8 °F 30.55 in Calm     92% 0.00 in
06:55 48.7 °F 46.6 °F 30.55 in Calm     92% 0.00 in
07:00 48.7 °F 46.6 °F 30.55 in Calm     92% 0.00 in
07:05 48.7 °F 46.6 °F 30.55 in Calm     92% 0.00 in
07:11 48.6 °F 46.4 °F 30.55 in Calm     92% 0.00 in
07:16 48.2 °F 45.7 °F 30.55 in Calm     91% 0.00 in
07:21 47.8 °F 45.3 °F 30.56 in Calm     91% 0.00 in
07:26 47.7 °F 45.1 °F 30.56 in Calm     91% 0.00 in
07:31 47.7 °F 45.1 °F 30.56 in Calm     91% 0.00 in
07:37 47.5 °F 45.0 °F 30.57 in Calm     91% 0.00 in
07:42 47.3 °F 44.8 °F 30.58 in Calm     91% 0.00 in
07:48 47.1 °F 44.6 °F 30.58 in Calm     91% 0.00 in
07:54 47.1 °F 44.6 °F 30.58 in Calm     91% 0.00 in
07:59 46.9 °F 44.4 °F 30.59 in Calm     91% 0.00 in
08:05 46.9 °F 44.4 °F 30.59 in Calm     91% 0.00 in
08:10 46.9 °F 44.4 °F 30.60 in Calm     91% 0.00 in
08:16 46.8 °F 44.1 °F 30.60 in Calm     90% 0.00 in
08:21 46.6 °F 43.9 °F 30.60 in Calm     90% 0.00 in
08:27 46.6 °F 43.9 °F 30.60 in Calm     90% 0.01 in
08:32 46.6 °F 43.9 °F 30.60 in Calm     90% 0.01 in
08:37 46.4 °F 43.7 °F 30.61 in Calm     90% 0.01 in
08:43 46.2 °F 43.5 °F 30.61 in Calm     90% 0.01 in
08:48 46.4 °F 43.7 °F 30.61 in Calm     90% 0.01 in
08:53 46.6 °F 43.5 °F 30.61 in Calm     89% 0.01 in
08:58 46.6 °F 43.5 °F 30.61 in Calm     89% 0.01 in
09:03 46.6 °F 43.9 °F 30.61 in Calm     90% 0.01 in
09:08 46.8 °F 44.1 °F 30.62 in Calm     90% 0.01 in
09:14 46.8 °F 43.7 °F 30.62 in Calm     89% 0.01 in
09:19 46.8 °F 44.1 °F 30.62 in Calm     90% 0.01 in
09:24 46.8 °F 44.1 °F 30.62 in Calm     90% 0.00 in
09:29 46.8 °F 43.7 °F 30.62 in Calm     89% 0.00 in
09:34 46.8 °F 43.7 °F 30.62 in Calm     89% 0.00 in
09:39 46.9 °F 44.2 °F 30.62 in Calm     90% 0.00 in
09:45 47.1 °F 44.1 °F 30.62 in Calm     89% 0.00 in
09:50 47.3 °F 43.9 °F 30.62 in Calm     88% 0.00 in
09:55 47.5 °F 44.1 °F 30.63 in Calm     88% 0.00 in
10:00 47.7 °F 44.2 °F 30.63 in Calm     88% 0.00 in
10:06 47.5 °F 43.9 °F 30.63 in Calm     87% 0.00 in
10:11 47.5 °F 44.1 °F 30.63 in Calm     88% 0.00 in
10:16 47.3 °F 43.7 °F 30.63 in Calm     87% 0.00 in
10:21 47.1 °F 43.7 °F 30.63 in Calm     88% 0.00 in
10:27 47.1 °F 43.5 °F 30.63 in Calm     87% 0.00 in
10:32 47.1 °F 43.7 °F 30.63 in Calm     88% 0.00 in
10:37 47.1 °F 44.1 °F 30.63 in Calm     89% 0.00 in
10:42 47.1 °F 44.1 °F 30.63 in Calm     89% 0.00 in
10:47 47.1 °F 43.7 °F 30.63 in Calm     88% 0.00 in
10:52 47.1 °F 43.7 °F 30.63 in Calm     88% 0.00 in
10:57 47.1 °F 44.1 °F 30.63 in Calm     89% 0.00 in
11:03 47.3 °F 43.9 °F 30.63 in Calm     88% 0.00 in
11:08 47.5 °F 44.1 °F 30.63 in Calm     88% 0.00 in
11:14 47.7 °F 44.2 °F 30.63 in Calm     88% 0.00 in
11:19 47.8 °F 44.4 °F 30.63 in Calm     88% 0.00 in
11:24 48.0 °F 44.4 °F 30.63 in Calm     87% 0.00 in
11:29 48.2 °F 44.6 °F 30.62 in Calm     87% 0.00 in
11:35 48.6 °F 45.1 °F 30.62 in Calm     88% 0.00 in
11:40 48.7 °F 45.3 °F 30.62 in Calm     88% 0.00 in
11:46 48.9 °F 45.1 °F 30.62 in Calm     87% 0.00 in
11:51 48.9 °F 45.0 °F 30.63 in Calm     86% 0.00 in
11:56 49.1 °F 45.3 °F 30.63 in Calm     87% 0.00 in
12:01 49.5 °F 45.7 °F 30.62 in Calm     87% 0.00 in
12:06 49.5 °F 45.7 °F 30.62 in Calm     87% 0.00 in
12:11 49.3 °F 45.0 °F 30.62 in Calm     85% 0.00 in
12:16 49.1 °F 45.1 °F 30.63 in Calm     86% 0.00 in
12:21 49.1 °F 45.1 °F 30.62 in Calm     86% 0.00 in
12:27 49.1 °F 45.1 °F 30.63 in Calm     86% 0.00 in
12:33 48.9 °F 45.0 °F 30.62 in Calm     86% 0.00 in
12:38 48.7 °F 44.8 °F 30.62 in Calm     86% 0.00 in
12:43 48.6 °F 44.6 °F 30.62 in Calm     86% 0.00 in
12:48 48.4 °F 44.8 °F 30.62 in Calm     87% 0.00 in
12:54 48.4 °F 44.8 °F 30.62 in Calm     87% 0.00 in
12:59 48.4 °F 44.8 °F 30.62 in Calm     87% 0.00 in
13:04 48.4 °F 44.8 °F 30.61 in Calm     87% 0.00 in
13:10 48.4 °F 44.8 °F 30.61 in Calm     87% 0.00 in
13:15 48.4 °F 44.8 °F 30.61 in Calm     87% 0.00 in
13:20 48.4 °F 44.8 °F 30.61 in Calm     87% 0.00 in
13:25 48.6 °F 45.1 °F 30.61 in Calm     88% 0.00 in
13:30 48.7 °F 45.3 °F 30.61 in Calm     88% 0.00 in
13:36 48.9 °F 45.5 °F 30.60 in Calm     88% 0.00 in
13:41 49.1 °F 45.7 °F 30.60 in Calm     88% 0.00 in
13:46 49.3 °F 45.5 °F 30.60 in Calm     87% 0.00 in
13:52 49.5 °F 45.7 °F 30.60 in Calm     87% 0.00 in
13:58 49.6 °F 45.9 °F 30.60 in Calm     87% 0.00 in
14:03 49.8 °F 46.0 °F 30.59 in Calm     87% 0.00 in
14:08 50.0 °F 46.2 °F 30.59 in Calm     87% 0.00 in
14:13 50.4 °F 46.9 °F 30.59 in Calm     88% 0.00 in
14:19 50.7 °F 46.9 °F 30.59 in Calm     87% 0.00 in
14:25 51.1 °F 47.1 °F 30.58 in Calm     86% 0.00 in
14:30 51.3 °F 46.9 °F 30.58 in Calm     85% 0.00 in
14:35 51.4 °F 47.1 °F 30.58 in Calm     85% 0.00 in
14:41 51.6 °F 47.5 °F 30.58 in Calm     86% 0.00 in
14:46 52.0 °F 47.7 °F 30.58 in Calm     85% 0.00 in
14:51 52.0 °F 47.7 °F 30.58 in Calm     85% 0.00 in
14:56 52.2 °F 47.5 °F 30.58 in Calm     84% 0.00 in
15:02 52.2 °F 47.8 °F 30.58 in Calm     85% 0.00 in
15:07 52.2 °F 47.5 °F 30.57 in Calm     84% 0.00 in
15:12 52.2 °F 47.8 °F 30.57 in Calm     85% 0.00 in
15:17 52.2 °F 47.5 °F 30.58 in Calm     84% 0.00 in
15:23 52.2 °F 47.8 °F 30.58 in Calm     85% 0.00 in
15:33 52.3 °F 48.0 °F 30.57 in Calm     85% 0.00 in
15:38 52.3 °F 48.0 °F 30.57 in Calm     85% 0.00 in
15:43 52.2 °F 47.5 °F 30.58 in Calm     84% 0.00 in
15:49 52.0 °F 47.7 °F 30.58 in Calm     85% 0.00 in
15:54 52.0 °F 47.7 °F 30.57 in Calm     85% 0.00 in
15:59 52.2 °F 48.0 °F 30.57 in Calm     86% 0.00 in
16:04 52.0 °F 47.7 °F 30.57 in Calm     85% 0.00 in
16:09 52.0 °F 47.7 °F 30.57 in Calm     85% 0.00 in
16:14 51.8 °F 47.5 °F 30.57 in Calm     85% 0.00 in
16:19 51.6 °F 47.3 °F 30.58 in Calm     85% 0.00 in
16:24 51.6 °F 47.5 °F 30.58 in Calm     86% 0.00 in
16:30 51.4 °F 47.5 °F 30.58 in Calm     86% 0.00 in
16:36 51.4 °F 47.5 °F 30.58 in Calm     86% 0.00 in
16:41 51.3 °F 46.9 °F 30.58 in Calm     85% 0.00 in
16:47 51.1 °F 47.1 °F 30.58 in Calm     86% 0.00 in
16:52 51.1 °F 47.1 °F 30.58 in Calm     86% 0.00 in
16:57 51.1 °F 47.1 °F 30.58 in Calm     86% 0.00 in
17:02 51.1 °F 47.1 °F 30.58 in Calm     86% 0.00 in
17:07 50.9 °F 47.1 °F 30.58 in Calm     87% 0.00 in
17:13 51.1 °F 47.3 °F 30.58 in Calm     87% 0.00 in
17:18 51.1 °F 47.3 °F 30.58 in Calm     87% 0.00 in
17:23 50.9 °F 47.1 °F 30.58 in Calm     87% 0.00 in
17:29 50.9 °F 47.1 °F 30.59 in Calm     87% 0.00 in
17:34 50.7 °F 46.9 °F 30.59 in Calm     87% 0.00 in
17:40 50.7 °F 46.9 °F 30.59 in Calm     87% 0.00 in
17:45 50.7 °F 46.9 °F 30.59 in Calm     87% 0.00 in
17:51 50.5 °F 46.8 °F 30.59 in Calm     87% 0.00 in
17:56 50.5 °F 46.8 °F 30.59 in Calm     87% 0.00 in
18:01 50.4 °F 46.6 °F 30.59 in Calm     87% 0.00 in
18:06 50.4 °F 46.9 °F 30.59 in Calm     88% 0.00 in
18:11 50.2 °F 46.8 °F 30.59 in Calm     88% 0.00 in
18:17 49.8 °F 46.4 °F 30.58 in Calm     88% 0.00 in
18:22 49.6 °F 46.2 °F 30.58 in Calm     88% 0.00 in
18:27 49.6 °F 46.6 °F 30.58 in Calm     89% 0.00 in
18:32 49.5 °F 46.4 °F 30.58 in Calm     89% 0.00 in
18:37 49.5 °F 46.4 °F 30.58 in Calm     89% 0.00 in
18:42 49.5 °F 46.4 °F 30.58 in Calm     89% 0.00 in
18:48 49.3 °F 46.2 °F 30.58 in Calm     89% 0.00 in
18:53 49.1 °F 46.0 °F 30.58 in Calm     89% 0.00 in
18:59 48.9 °F 45.9 °F 30.58 in Calm     89% 0.00 in
19:04 48.9 °F 46.0 °F 30.59 in Calm     90% 0.00 in
19:09 48.9 °F 46.0 °F 30.59 in Calm     90% 0.00 in
19:15 48.7 °F 45.9 °F 30.59 in Calm     90% 0.00 in
19:21 48.7 °F 45.9 °F 30.59 in Calm     90% 0.00 in
19:26 48.7 °F 45.9 °F 30.59 in Calm     90% 0.00 in
19:31 48.7 °F 45.9 °F 30.59 in Calm     90% 0.00 in
19:36 48.7 °F 45.9 °F 30.59 in Calm     90% 0.00 in
19:41 48.7 °F 45.9 °F 30.59 in Calm     90% 0.00 in
19:46 48.7 °F 46.2 °F 30.59 in Calm     91% 0.00 in
19:51 48.7 °F 46.2 °F 30.59 in Calm     91% 0.00 in
19:57 48.7 °F 46.2 °F 30.59 in Calm     91% 0.00 in
20:02 48.7 °F 46.2 °F 30.60 in Calm     91% 0.00 in
20:08 48.7 °F 46.2 °F 30.60 in Calm     91% 0.00 in
20:13 48.7 °F 46.2 °F 30.60 in Calm     91% 0.00 in
20:19 48.7 °F 46.2 °F 30.60 in Calm     91% 0.00 in
20:25 48.7 °F 46.2 °F 30.60 in Calm     91% 0.00 in
20:31 48.7 °F 46.6 °F 30.60 in Calm     92% 0.00 in
20:36 48.7 °F 46.6 °F 30.60 in Calm     92% 0.00 in
20:42 48.7 °F 46.6 °F 30.60 in Calm     92% 0.00 in
20:47 48.7 °F 46.2 °F 30.60 in Calm     91% 0.00 in
20:53 48.7 °F 46.2 °F 30.60 in Calm     91% 0.00 in
20:58 48.7 °F 46.2 °F 30.60 in Calm     91% 0.00 in
21:03 48.7 °F 46.2 °F 30.60 in Calm     91% 0.00 in
21:08 48.7 °F 46.2 °F 30.60 in Calm     91% 0.00 in
21:13 48.6 °F 46.0 °F 30.60 in Calm     91% 0.00 in
21:15 48.6 °F 46.0 °F 30.60 in Calm     91% 0.00 in
21:20 48.6 °F 46.0 °F 30.60 in Calm     91% 0.00 in
21:25 48.6 °F 46.0 °F 30.60 in Calm     91% 0.00 in
21:30 48.6 °F 46.0 °F 30.60 in Calm     91% 0.00 in
21:36 48.6 °F 46.0 °F 30.60 in Calm     91% 0.00 in
21:42 48.4 °F 45.9 °F 30.60 in Calm     91% 0.00 in
21:47 48.4 °F 45.9 °F 30.60 in Calm     91% 0.00 in
21:52 48.4 °F 45.9 °F 30.60 in Calm     91% 0.00 in
21:57 48.2 °F 45.7 °F 30.60 in Calm     91% 0.00 in
22:02 48.2 °F 45.7 °F 30.60 in Calm     91% 0.00 in
22:08 48.2 °F 45.7 °F 30.60 in Calm     91% 0.00 in
22:13 48.2 °F 45.7 °F 30.60 in Calm     91% 0.00 in
22:18 48.2 °F 45.7 °F 30.60 in Calm     91% 0.00 in
22:24 48.2 °F 45.7 °F 30.59 in Calm     91% 0.00 in
22:29 48.0 °F 45.5 °F 30.59 in Calm     91% 0.00 in
22:34 48.0 °F 45.5 °F 30.59 in Calm     91% 0.00 in
22:39 48.0 °F 45.5 °F 30.59 in Calm     91% 0.00 in
22:45 48.0 °F 45.5 °F 30.59 in Calm     91% 0.00 in
22:50 48.0 °F 45.5 °F 30.59 in Calm     91% 0.00 in
22:55 48.0 °F 45.5 °F 30.58 in Calm     91% 0.00 in
23:01 48.0 °F 45.5 °F 30.58 in Calm     91% 0.00 in
23:06 48.0 °F 45.5 °F 30.58 in Calm     91% 0.00 in
23:11 48.0 °F 45.9 °F 30.58 in Calm     92% 0.00 in
23:17 48.0 °F 45.5 °F 30.58 in Calm     91% 0.00 in
23:23 48.0 °F 45.9 °F 30.58 in Calm     92% 0.00 in
23:28 48.0 °F 45.9 °F 30.58 in Calm     92% 0.00 in
23:33 48.0 °F 45.9 °F 30.58 in Calm     92% 0.00 in
23:39 47.8 °F 45.7 °F 30.57 in Calm     92% 0.00 in
23:44 47.8 °F 45.7 °F 30.57 in Calm     92% 0.00 in
23:49 47.7 °F 45.5 °F 30.57 in Calm     92% 0.00 in
23:54 47.5 °F 45.3 °F 30.57 in Calm     92% 0.00 in
23:59 47.1 °F 45.0 °F 30.57 in Calm     92% 0.00 in
Ellijay Weather
Compliments of Weather Underground - 2.5 mb